Time;durP1;ratioP1;P1;durP2;ratioP2;P2;SDS_P1;SDS_P2;PMS_P1;PMS_P2;Temp;Humidity;BMP_temperature;BMP_pressure;BME280_temperature;BME280_humidity;BME280_pressure;Samples;Min_cycle;Max_cycle;Signal;HPM_P1;HPM_P2
2021/12/18 00:00:09;;;;;;;4.33;3.20;;;10.30;99.90;;;;;;5048671;28;20298;-81
2021/12/18 00:02:42;;;;;;;27.23;4.37;;;10.40;99.90;;;;;;5047420;28;20620;-81
2021/12/18 00:05:09;;;;;;;4.53;3.40;;;10.40;99.90;;;;;;5024879;28;20347;-80
2021/12/18 00:07:36;;;;;;;5.13;3.27;;;10.40;99.90;;;;;;5042740;28;20225;-83
2021/12/18 00:10:06;;;;;;;3.63;2.80;;;10.30;99.90;;;;;;5039152;28;20227;-80
2021/12/18 00:12:32;;;;;;;3.87;2.67;;;10.30;99.90;;;;;;5032793;28;20239;-82
2021/12/18 00:14:59;;;;;;;3.50;2.60;;;10.30;99.90;;;;;;5046804;28;20220;-80
2021/12/18 00:17:26;;;;;;;2.30;1.90;;;10.40;99.90;;;;;;5027303;28;20223;-80
2021/12/18 00:19:53;;;;;;;2.40;1.90;;;10.30;99.90;;;;;;5041410;28;20223;-80
2021/12/18 00:22:20;;;;;;;2.40;1.77;;;10.30;99.90;;;;;;5036799;28;20223;-81
2021/12/18 00:24:46;;;;;;;2.00;1.80;;;10.30;99.90;;;;;;5038169;28;20483;-81
2021/12/18 00:27:14;;;;;;;3.47;1.40;;;10.30;99.90;;;;;;5044666;28;20218;-81
2021/12/18 00:29:41;;;;;;;2.17;1.43;;;10.30;99.90;;;;;;5028655;28;20223;-80
2021/12/18 00:32:08;;;;;;;2.77;1.40;;;10.30;99.90;;;;;;5046314;28;20222;-80
2021/12/18 00:34:35;;;;;;;2.20;1.60;;;10.30;99.90;;;;;;5029741;28;20305;-81
2021/12/18 00:37:02;;;;;;;4.13;1.50;;;10.30;99.90;;;;;;5032841;28;20597;-82
2021/12/18 00:39:31;;;;;;;2.93;1.73;;;10.30;99.90;;;;;;5050119;28;20568;-81
2021/12/18 00:42:19;;;;;;;2.03;1.60;;;10.20;99.90;;;;;;5032253;28;20222;-81
2021/12/18 00:44:47;;;;;;;2.73;1.60;;;10.30;99.90;;;;;;5050333;28;20230;-81
2021/12/18 00:47:14;;;;;;;2.70;1.90;;;10.30;99.90;;;;;;5031561;28;20294;-81
2021/12/18 00:49:41;;;;;;;4.13;2.43;;;10.30;99.90;;;;;;5032144;28;20245;-81
2021/12/18 00:52:08;;;;;;;3.10;2.27;;;10.30;99.90;;;;;;5049531;28;20215;-82
2021/12/18 00:54:35;;;;;;;3.30;2.53;;;10.30;99.90;;;;;;5049578;28;20228;-82
2021/12/18 00:57:03;;;;;;;3.43;2.50;;;10.30;99.90;;;;;;5048966;28;20226;-82
2021/12/18 00:59:32;;;;;;;3.73;2.67;;;10.30;99.90;;;;;;5030240;28;20323;-81
2021/12/18 01:02:00;;;;;;;3.80;2.63;;;10.30;99.90;;;;;;5043974;28;20230;-81
2021/12/18 01:04:27;;;;;;;5.87;2.93;;;10.30;99.90;;;;;;5041974;28;20306;-82
2021/12/18 01:06:54;;;;;;;3.93;2.93;;;10.30;99.90;;;;;;5047298;28;20252;-80
2021/12/18 01:09:30;;;;;;;6.10;3.20;;;10.40;99.90;;;;;;5026815;28;20223;-81
2021/12/18 01:11:56;;;;;;;5.00;3.03;;;10.40;99.90;;;;;;5041236;28;20225;-82
2021/12/18 01:14:35;;;;;;;4.50;3.37;;;10.40;99.90;;;;;;5038481;28;20696;-81
2021/12/18 01:22:45;;;;;;;6.17;3.53;;;10.40;99.90;;;;;;5041980;28;20223;-81
2021/12/18 01:25:13;;;;;;;5.87;3.77;;;10.40;99.90;;;;;;5028405;28;20224;-80
2021/12/18 01:27:40;;;;;;;4.87;3.43;;;10.40;99.90;;;;;;5021846;28;20223;-81
2021/12/18 01:30:09;;;;;;;5.00;3.73;;;10.40;99.90;;;;;;5032227;28;20226;-80
2021/12/18 01:32:37;;;;;;;5.70;3.83;;;10.40;99.90;;;;;;5052077;28;20238;-81
2021/12/18 01:35:06;;;;;;;6.17;4.23;;;10.40;99.90;;;;;;5055287;28;20214;-81
2021/12/18 01:37:32;;;;;;;17.97;5.13;;;10.40;99.90;;;;;;5050621;28;20964;-82
2021/12/18 01:39:59;;;;;;;6.53;4.23;;;10.40;99.90;;;;;;5048871;28;20223;-80
2021/12/18 01:43:04;;;;;;;7.37;4.20;;;10.40;99.90;;;;;;5042798;28;20539;-80
2021/12/18 01:45:28;;;;;;;4.50;3.40;;;10.40;99.90;;;;;;5040624;28;20296;-80
2021/12/18 01:53:25;;;;;;;4.37;2.70;;;10.40;99.90;;;;;;5049452;28;20567;-80
2021/12/18 01:55:52;;;;;;;3.90;3.07;;;10.40;99.90;;;;;;5036041;28;20293;-80
2021/12/18 01:58:22;;;;;;;3.60;2.50;;;10.40;99.90;;;;;;5026713;28;20212;-81
2021/12/18 02:00:51;;;;;;;4.57;2.73;;;10.40;99.90;;;;;;5020380;28;20229;-80
2021/12/18 02:03:20;;;;;;;4.77;2.67;;;10.40;99.90;;;;;;5016210;28;21951;-80
2021/12/18 02:05:48;;;;;;;6.20;3.10;;;10.40;99.90;;;;;;5033070;28;20222;-81
2021/12/18 02:08:18;;;;;;;4.20;2.67;;;10.40;99.90;;;;;;5011490;28;20247;-80
2021/12/18 02:10:49;;;;;;;4.63;2.67;;;10.40;99.90;;;;;;5019246;28;20231;-81
2021/12/18 02:13:35;;;;;;;4.10;2.67;;;10.40;99.90;;;;;;5033348;28;20223;-80
2021/12/18 02:21:33;;;;;;;5.47;3.57;;;10.40;99.90;;;;;;5028784;28;20229;-81
2021/12/18 02:24:01;;;;;;;6.80;3.40;;;10.40;99.90;;;;;;5029744;28;20300;-80
2021/12/18 02:26:27;;;;;;;7.07;4.07;;;10.40;99.90;;;;;;5027588;28;20223;-81
2021/12/18 02:28:57;;;;;;;6.23;3.83;;;10.40;99.90;;;;;;5010728;28;20264;-81
2021/12/18 02:31:24;;;;;;;5.27;3.50;;;10.40;99.90;;;;;;5025092;28;20268;-81
2021/12/18 02:33:51;;;;;;;6.60;3.83;;;10.40;99.90;;;;;;5014632;28;20224;-81
2021/12/18 02:36:23;;;;;;;6.83;4.00;;;10.40;99.90;;;;;;5029494;28;20215;-80
2021/12/18 02:39:19;;;;;;;6.37;3.93;;;10.40;99.90;;;;;;5019802;28;20291;-81
2021/12/18 02:42:06;;;;;;;5.87;4.10;;;10.40;99.90;;;;;;5035804;28;20222;-81
2021/12/18 02:44:33;;;;;;;8.47;4.87;;;10.40;99.90;;;;;;5028816;28;20350;-81
2021/12/18 02:47:00;;;;;;;8.53;4.73;;;10.40;99.90;;;;;;5055001;28;20210;-81
2021/12/18 02:49:28;;;;;;;7.73;4.97;;;10.40;99.90;;;;;;5032968;28;20254;-81
2021/12/18 02:51:55;;;;;;;11.93;5.50;;;10.40;99.90;;;;;;5050769;28;20218;-80
2021/12/18 02:54:23;;;;;;;8.80;4.73;;;10.40;99.90;;;;;;5057688;28;20234;-80
2021/12/18 02:56:50;;;;;;;8.03;4.77;;;10.40;99.90;;;;;;5053613;28;20569;-80
2021/12/18 02:59:17;;;;;;;9.07;5.10;;;10.40;99.90;;;;;;5032410;28;20216;-81
2021/12/18 03:01:44;;;;;;;11.00;5.00;;;10.40;99.90;;;;;;5029304;28;20313;-80
2021/12/18 03:04:17;;;;;;;9.17;5.30;;;10.40;99.90;;;;;;5046118;28;20236;-82
2021/12/18 03:06:47;;;;;;;8.53;4.50;;;10.40;99.90;;;;;;5043119;28;20494;-81
2021/12/18 03:09:47;;;;;;;10.10;5.33;;;10.40;99.90;;;;;;5044319;28;20212;-81
2021/12/18 03:23:14;;;;;;;9.97;4.93;;;10.40;99.90;;;;;;5023350;28;20706;-81
2021/12/18 03:25:43;;;;;;;10.07;5.00;;;10.40;99.90;;;;;;5042732;28;20267;-84
2021/12/18 03:28:13;;;;;;;7.67;4.80;;;10.40;99.90;;;;;;5037732;28;20313;-81
2021/12/18 03:30:42;;;;;;;12.30;5.27;;;10.40;99.90;;;;;;5037994;28;20233;-81
2021/12/18 03:33:09;;;;;;;9.23;5.00;;;10.50;99.90;;;;;;5038038;28;20760;-82
2021/12/18 03:35:35;;;;;;;9.23;4.93;;;10.50;99.90;;;;;;5029139;28;20216;-82
2021/12/18 03:38:02;;;;;;;7.80;4.80;;;10.50;99.90;;;;;;5025619;28;20234;-82
2021/12/18 03:40:29;;;;;;;8.77;5.57;;;10.50;99.90;;;;;;5024601;28;20222;-82
2021/12/18 03:42:56;;;;;;;9.30;5.37;;;10.50;99.90;;;;;;5026237;28;20224;-81
2021/12/18 03:45:25;;;;;;;10.23;5.90;;;10.50;99.90;;;;;;5033052;28;20211;-82
2021/12/18 03:47:53;;;;;;;7.87;4.90;;;10.50;99.90;;;;;;5045810;28;20294;-81
2021/12/18 03:50:20;;;;;;;9.53;5.43;;;10.60;99.90;;;;;;5017454;28;20706;-81
2021/12/18 03:52:47;;;;;;;11.47;5.57;;;10.50;99.90;;;;;;5024072;28;20235;-81
2021/12/18 03:55:15;;;;;;;12.40;5.70;;;10.50;99.90;;;;;;5020296;28;20227;-81
2021/12/18 03:57:42;;;;;;;9.53;5.70;;;10.60;99.90;;;;;;5027289;28;20258;-82
2021/12/18 04:00:16;;;;;;;8.87;5.50;;;10.50;99.90;;;;;;5029043;28;20216;-82
2021/12/18 04:02:45;;;;;;;7.67;5.30;;;10.60;99.90;;;;;;5040579;28;20221;-83
2021/12/18 04:05:12;;;;;;;9.97;6.03;;;10.60;99.90;;;;;;5033565;28;20227;-82
2021/12/18 04:07:42;;;;;;;10.73;5.27;;;10.60;99.90;;;;;;5034071;28;20233;-82
2021/12/18 04:10:10;;;;;;;7.93;5.40;;;10.60;99.90;;;;;;5035291;28;20341;-82
2021/12/18 04:12:37;;;;;;;6.13;4.40;;;10.60;99.90;;;;;;5039379;28;20251;-82
2021/12/18 04:15:05;;;;;;;5.77;4.43;;;10.60;99.90;;;;;;5027424;28;20222;-81
2021/12/18 04:17:31;;;;;;;6.37;4.43;;;10.50;99.90;;;;;;5040722;28;20223;-81
2021/12/18 04:20:00;;;;;;;8.00;5.13;;;10.60;99.90;;;;;;5027849;28;20292;-81
2021/12/18 04:22:27;;;;;;;10.27;5.43;;;10.50;99.90;;;;;;5046852;28;20222;-82
2021/12/18 04:24:53;;;;;;;7.97;5.20;;;10.50;99.90;;;;;;5044706;28;20844;-82
2021/12/18 04:27:20;;;;;;;7.13;5.10;;;10.50;99.90;;;;;;5048635;28;20305;-82
2021/12/18 04:29:47;;;;;;;8.40;5.57;;;10.50;99.90;;;;;;5026202;28;20227;-83
2021/12/18 04:32:13;;;;;;;10.33;5.80;;;10.50;99.90;;;;;;5029253;28;20224;-82
2021/12/18 04:34:40;;;;;;;9.13;5.57;;;10.60;99.90;;;;;;5053039;28;20220;-81
2021/12/18 04:37:08;;;;;;;7.90;5.23;;;10.60;99.90;;;;;;5031580;28;20231;-82
2021/12/18 04:39:35;;;;;;;7.53;5.50;;;10.60;99.90;;;;;;5032166;28;20331;-81
2021/12/18 04:42:01;;;;;;;7.40;5.30;;;10.60;99.90;;;;;;5032064;28;20215;-81
2021/12/18 04:44:28;;;;;;;7.87;4.27;;;10.60;99.90;;;;;;5043266;28;20731;-81
2021/12/18 04:46:55;;;;;;;7.47;4.50;;;10.60;99.90;;;;;;5042859;28;20218;-81
2021/12/18 04:49:21;;;;;;;7.97;3.87;;;10.60;99.90;;;;;;5047105;28;20241;-82
2021/12/18 04:51:48;;;;;;;7.07;4.23;;;10.60;99.90;;;;;;5010254;28;20221;-81
2021/12/18 04:54:16;;;;;;;5.27;3.27;;;10.60;99.90;;;;;;5010261;28;20234;-82
2021/12/18 04:56:43;;;;;;;6.43;3.97;;;10.60;99.90;;;;;;5013234;28;20784;-81
2021/12/18 04:59:10;;;;;;;6.53;3.70;;;10.60;99.90;;;;;;5014262;28;20227;-82
2021/12/18 05:01:39;;;;;;;6.17;4.10;;;10.60;99.90;;;;;;5033601;28;20289;-82
2021/12/18 05:04:09;;;;;;;6.63;4.73;;;10.60;99.90;;;;;;5014672;28;20220;-82
2021/12/18 05:06:37;;;;;;;8.20;5.57;;;10.60;99.90;;;;;;5018611;28;20230;-82
2021/12/18 05:09:04;;;;;;;7.40;4.80;;;10.60;99.90;;;;;;5020246;28;20230;-82
2021/12/18 05:11:32;;;;;;;8.50;5.67;;;10.60;99.90;;;;;;5028796;28;20228;-81
2021/12/18 05:13:58;;;;;;;7.53;5.87;;;10.60;99.90;;;;;;5029607;28;20227;-82
2021/12/18 05:16:25;;;;;;;8.50;5.97;;;10.60;99.90;;;;;;5033852;28;20225;-83
2021/12/18 05:18:52;;;;;;;7.13;5.43;;;10.60;99.90;;;;;;5015108;28;20235;-84
2021/12/18 05:21:19;;;;;;;6.33;4.63;;;10.60;99.90;;;;;;5013255;28;20209;-83
2021/12/18 05:23:46;;;;;;;6.13;4.33;;;10.50;99.90;;;;;;5026255;28;20227;-82
2021/12/18 05:26:12;;;;;;;5.77;3.63;;;10.60;99.90;;;;;;5037984;28;20218;-82
2021/12/18 05:28:40;;;;;;;5.07;3.50;;;10.60;99.90;;;;;;5032723;28;20226;-83
2021/12/18 05:31:09;;;;;;;4.03;3.40;;;10.60;99.90;;;;;;5034968;28;20227;-82
2021/12/18 05:33:36;;;;;;;4.10;2.87;;;10.50;99.90;;;;;;5011757;28;20276;-82
2021/12/18 05:36:23;;;;;;;3.90;2.50;;;10.60;99.90;;;;;;5050006;28;20226;-82
2021/12/18 05:38:50;;;;;;;3.17;2.30;;;10.60;99.90;;;;;;5027304;28;20234;-82
2021/12/18 05:41:16;;;;;;;4.27;2.67;;;10.60;99.90;;;;;;5027745;28;20210;-83
2021/12/18 05:43:44;;;;;;;4.87;3.33;;;10.50;99.90;;;;;;5014405;28;20684;-82
2021/12/18 05:46:11;;;;;;;3.10;2.43;;;10.60;99.90;;;;;;5033273;28;20905;-82
2021/12/18 05:48:38;;;;;;;5.23;3.60;;;10.60;99.90;;;;;;5036715;28;20232;-83
2021/12/18 05:51:05;;;;;;;4.53;3.50;;;10.60;99.90;;;;;;5044383;28;20230;-83
2021/12/18 05:53:32;;;;;;;5.03;3.77;;;10.60;99.90;;;;;;5056702;28;20212;-83
2021/12/18 05:55:59;;;;;;;5.57;4.00;;;10.60;99.90;;;;;;5036441;28;20651;-83
2021/12/18 05:58:25;;;;;;;5.87;4.07;;;10.50;99.90;;;;;;5048091;28;20220;-82
2021/12/18 06:00:53;;;;;;;6.03;4.90;;;10.50;99.90;;;;;;5034248;28;20235;-82
2021/12/18 06:03:20;;;;;;;6.17;4.70;;;10.50;99.90;;;;;;5036336;28;20249;-82
2021/12/18 06:05:47;;;;;;;6.93;4.77;;;10.50;99.90;;;;;;5052442;28;20256;-81
2021/12/18 06:08:14;;;;;;;6.80;5.83;;;10.50;99.90;;;;;;5051769;28;20676;-81
2021/12/18 06:10:41;;;;;;;7.80;6.73;;;10.50;99.90;;;;;;5054893;28;20284;-82
2021/12/18 06:13:08;;;;;;;8.70;6.90;;;10.40;99.90;;;;;;5033388;28;20229;-82
2021/12/18 06:15:35;;;;;;;7.63;6.50;;;10.40;99.90;;;;;;5061328;28;20710;-83
2021/12/18 06:18:03;;;;;;;7.43;6.27;;;10.40;99.90;;;;;;5055274;28;20309;-83
2021/12/18 06:20:30;;;;;;;7.73;6.63;;;10.40;99.90;;;;;;5053055;28;20241;-82
2021/12/18 06:22:57;;;;;;;7.97;6.23;;;10.40;99.90;;;;;;5034911;28;20226;-83
2021/12/18 06:25:24;;;;;;;6.60;5.77;;;10.30;99.90;;;;;;5034796;28;20704;-83
2021/12/18 06:27:51;;;;;;;6.00;5.40;;;10.30;99.90;;;;;;5035052;28;20762;-83
2021/12/18 06:30:19;;;;;;;7.07;5.77;;;10.30;99.90;;;;;;5052965;28;20234;-83
2021/12/18 06:32:46;;;;;;;6.90;5.77;;;10.30;99.90;;;;;;5035832;28;20227;-83
2021/12/18 06:35:14;;;;;;;6.90;6.20;;;10.30;99.90;;;;;;5035412;28;20589;-83
2021/12/18 06:37:41;;;;;;;6.70;5.70;;;10.20;99.90;;;;;;5052519;28;20234;-82
2021/12/18 06:40:09;;;;;;;5.67;5.10;;;10.20;99.90;;;;;;5035032;28;20218;-83
2021/12/18 06:42:36;;;;;;;8.07;6.30;;;10.20;99.90;;;;;;5034646;28;20236;-83
2021/12/18 06:45:03;;;;;;;6.60;5.87;;;10.20;99.90;;;;;;5071494;28;20230;-84
2021/12/18 06:47:30;;;;;;;6.17;5.30;;;10.20;99.90;;;;;;5070892;28;20613;-83
2021/12/18 06:49:56;;;;;;;7.40;5.83;;;10.20;99.90;;;;;;5054568;28;20233;-83
2021/12/18 06:52:24;;;;;;;6.37;5.40;;;10.20;99.90;;;;;;5053670;28;20226;-84
2021/12/18 06:54:51;;;;;;;6.63;5.57;;;10.20;99.90;;;;;;5054202;28;20230;-82
2021/12/18 06:57:22;;;;;;;7.07;5.67;;;10.20;99.90;;;;;;5054287;28;20218;-82
2021/12/18 06:59:49;;;;;;;5.17;4.67;;;10.20;99.90;;;;;;5052840;28;20247;-83
2021/12/18 07:02:15;;;;;;;6.97;4.57;;;10.20;99.90;;;;;;5055573;28;20233;-83
2021/12/18 07:04:42;;;;;;;4.87;4.23;;;10.20;99.90;;;;;;5053847;28;20214;-82
2021/12/18 07:07:09;;;;;;;5.23;4.27;;;10.20;99.90;;;;;;5036175;28;20251;-82
2021/12/18 07:09:37;;;;;;;5.23;4.23;;;10.20;99.90;;;;;;5073873;28;20211;-81
2021/12/18 07:12:05;;;;;;;5.10;4.27;;;10.20;99.90;;;;;;5052730;28;20231;-82
2021/12/18 07:14:31;;;;;;;5.17;4.43;;;10.20;99.90;;;;;;5062836;28;20240;-83
2021/12/18 07:16:58;;;;;;;6.13;4.60;;;10.20;99.90;;;;;;5073626;28;20298;-83
2021/12/18 07:19:26;;;;;;;6.43;4.53;;;10.30;99.90;;;;;;5055304;28;20721;-84
2021/12/18 07:21:52;;;;;;;6.03;4.60;;;10.20;99.90;;;;;;5073046;28;20217;-82
2021/12/18 07:24:19;;;;;;;6.73;4.67;;;10.30;99.90;;;;;;5047245;28;20225;-83
2021/12/18 07:26:47;;;;;;;6.90;4.90;;;10.20;99.90;;;;;;5035057;28;20231;-83
2021/12/18 07:29:14;;;;;;;6.10;4.60;;;10.30;99.90;;;;;;5051723;28;20233;-83
2021/12/18 07:31:40;;;;;;;6.90;4.33;;;10.30;99.90;;;;;;5050812;28;20225;-83
2021/12/18 07:34:07;;;;;;;6.13;4.50;;;10.30;99.90;;;;;;5053493;28;20249;-83
2021/12/18 07:36:34;;;;;;;5.70;3.77;;;10.30;99.90;;;;;;5051987;28;20239;-84
2021/12/18 07:39:01;;;;;;;4.67;3.50;;;10.30;99.90;;;;;;5043146;28;20780;-84
2021/12/18 07:41:28;;;;;;;5.27;3.60;;;10.30;99.90;;;;;;5034762;28;20229;-83
2021/12/18 07:43:56;;;;;;;4.47;3.27;;;10.30;99.90;;;;;;5053046;28;20712;-84
2021/12/18 07:46:23;;;;;;;6.97;3.57;;;10.30;99.90;;;;;;5053242;28;20218;-84
2021/12/18 07:48:50;;;;;;;4.50;3.57;;;10.30;99.90;;;;;;5035065;28;20230;-84
2021/12/18 07:51:17;;;;;;;6.27;4.43;;;10.30;99.90;;;;;;5035109;28;20229;-84
2021/12/18 07:53:43;;;;;;;6.67;4.73;;;10.30;99.90;;;;;;5035014;28;20228;-83
2021/12/18 07:56:10;;;;;;;7.43;4.77;;;10.30;99.90;;;;;;5034295;28;20231;-82
2021/12/18 07:58:37;;;;;;;7.07;5.40;;;10.30;99.90;;;;;;5063573;28;20215;-81
2021/12/18 08:01:05;;;;;;;7.10;5.47;;;10.30;99.90;;;;;;5044002;28;20960;-82
2021/12/18 08:03:32;;;;;;;7.37;5.27;;;10.20;99.90;;;;;;5047803;28;20216;-83
2021/12/18 08:05:59;;;;;;;9.23;6.43;;;10.30;99.90;;;;;;5049717;28;20312;-82
2021/12/18 08:08:26;;;;;;;7.33;6.30;;;10.30;99.90;;;;;;5049576;28;20239;-82
2021/12/18 08:10:53;;;;;;;9.07;6.90;;;10.30;99.90;;;;;;5050198;28;20247;-82
2021/12/18 08:13:19;;;;;;;13.33;6.40;;;10.30;99.90;;;;;;5046281;28;20227;-81
2021/12/18 08:15:46;;;;;;;22.33;7.00;;;10.30;99.90;;;;;;5051778;28;20595;-81
2021/12/18 08:18:14;;;;;;;7.93;5.87;;;10.30;99.90;;;;;;5034721;28;20231;-82
2021/12/18 08:20:41;;;;;;;8.30;5.63;;;10.30;99.90;;;;;;5047563;28;20258;-82
2021/12/18 08:23:08;;;;;;;7.50;5.13;;;10.30;99.90;;;;;;5043365;28;20218;-83
2021/12/18 08:25:36;;;;;;;121.40;13.10;;;10.30;99.90;;;;;;5051890;28;20312;-87
2021/12/18 08:28:04;;;;;;;11.13;4.90;;;10.30;99.90;;;;;;5032726;28;20317;-82
2021/12/18 08:30:38;;;;;;;47.87;7.13;;;10.30;99.90;;;;;;5051208;28;20593;-83
2021/12/18 08:33:05;;;;;;;29.23;5.67;;;10.30;99.90;;;;;;5033111;28;20238;-81
2021/12/18 08:35:35;;;;;;;41.03;7.00;;;10.30;99.90;;;;;;5036972;28;20222;-81
2021/12/18 08:38:03;;;;;;;27.97;6.03;;;10.30;99.90;;;;;;5043047;28;20225;-81
2021/12/18 08:40:31;;;;;;;8.43;5.07;;;10.40;99.90;;;;;;5049658;28;20221;-81
2021/12/18 08:42:58;;;;;;;22.77;5.17;;;10.30;99.90;;;;;;5054875;28;20224;-80
2021/12/18 08:45:25;;;;;;;23.53;5.53;;;10.40;99.90;;;;;;5047102;28;20952;-81
2021/12/18 08:47:52;;;;;;;63.33;7.77;;;10.30;99.90;;;;;;5054102;28;20231;-81
2021/12/18 08:50:21;;;;;;;34.67;6.00;;;10.30;99.90;;;;;;5053181;28;20275;-81
2021/12/18 08:52:51;;;;;;;8.70;4.57;;;10.40;99.90;;;;;;5039679;28;20574;-83
2021/12/18 08:55:20;;;;;;;9.27;5.23;;;10.30;99.90;;;;;;5016922;28;20230;-79
2021/12/18 08:57:48;;;;;;;10.60;5.23;;;10.30;99.90;;;;;;5015520;28;20282;-79
2021/12/18 09:00:17;;;;;;;12.27;6.77;;;10.30;99.90;;;;;;5016341;28;20224;-80
2021/12/18 09:02:46;;;;;;;11.33;5.60;;;10.30;99.90;;;;;;5033226;28;20688;-80
2021/12/18 09:05:13;;;;;;;36.47;7.00;;;10.30;99.90;;;;;;5014541;28;20226;-79
2021/12/18 09:07:40;;;;;;;8.87;3.30;;;10.30;99.90;;;;;;5031765;28;20233;-79
2021/12/18 09:10:09;;;;;;;6.50;3.30;;;10.30;99.90;;;;;;5015214;28;20255;-79
2021/12/18 09:12:36;;;;;;;9.73;2.47;;;10.30;99.90;;;;;;5049747;28;20239;-80
2021/12/18 09:15:03;;;;;;;20.93;2.97;;;10.30;99.90;;;;;;5035456;28;20912;-79
2021/12/18 09:17:30;;;;;;;10.47;1.93;;;10.30;99.90;;;;;;5051331;28;20312;-80
2021/12/18 09:19:57;;;;;;;4.13;1.50;;;10.30;99.90;;;;;;5051334;28;20245;-80
2021/12/18 09:22:24;;;;;;;8.20;2.17;;;10.40;99.90;;;;;;5050886;28;20588;-80
2021/12/18 09:24:50;;;;;;;6.00;1.73;;;10.40;99.90;;;;;;5051238;28;20242;-80
2021/12/18 09:27:19;;;;;;;6.27;1.60;;;10.40;99.90;;;;;;5053363;28;20224;-79
2021/12/18 09:29:46;;;;;;;19.00;2.63;;;10.40;99.90;;;;;;5053352;28;20707;-79
2021/12/18 09:32:13;;;;;;;36.20;3.60;;;10.40;99.90;;;;;;5051768;28;20234;-79
2021/12/18 09:34:39;;;;;;;9.73;2.30;;;10.40;99.90;;;;;;5053329;28;20595;-80
2021/12/18 09:37:07;;;;;;;1.70;1.40;;;10.40;99.90;;;;;;5053197;28;20257;-80
2021/12/18 09:39:34;;;;;;;3.70;1.70;;;10.40;99.90;;;;;;5054345;28;20223;-81
2021/12/18 09:42:01;;;;;;;4.93;2.10;;;10.40;99.90;;;;;;5053127;28;20219;-80
2021/12/18 09:44:31;;;;;;;3.23;1.80;;;10.40;99.90;;;;;;5052024;28;20233;-80
2021/12/18 09:46:59;;;;;;;2.40;2.00;;;10.40;99.90;;;;;;5053455;28;20229;-79
2021/12/18 09:49:26;;;;;;;3.20;2.33;;;10.50;99.90;;;;;;5052859;28;20776;-80
2021/12/18 09:51:53;;;;;;;2.73;1.90;;;10.50;99.90;;;;;;5051698;28;20252;-80
2021/12/18 09:54:21;;;;;;;2.67;1.83;;;10.50;99.90;;;;;;5066531;28;20452;-80
2021/12/18 09:56:48;;;;;;;2.73;1.80;;;10.50;99.90;;;;;;5053867;28;20212;-80
2021/12/18 09:59:15;;;;;;;2.57;1.77;;;10.50;99.90;;;;;;5053208;28;20332;-81
2021/12/18 10:01:43;;;;;;;2.10;1.40;;;10.50;99.90;;;;;;5051956;28;21016;-80
2021/12/18 10:04:26;;;;;;;3.40;1.63;;;10.50;99.90;;;;;;5052615;28;20222;-80
2021/12/18 10:06:53;;;;;;;2.00;1.40;;;10.50;99.90;;;;;;5051325;28;20229;-80
2021/12/18 10:09:35;;;;;;;4.73;1.80;;;10.50;99.90;;;;;;5052625;28;20697;-79
2021/12/18 10:12:05;;;;;;;4.13;1.93;;;10.50;99.90;;;;;;5050208;28;20313;-80
2021/12/18 10:14:35;;;;;;;5.20;2.77;;;10.50;99.90;;;;;;5052479;28;20234;-80
2021/12/18 10:17:06;;;;;;;3.90;2.63;;;10.50;99.90;;;;;;5052262;28;20221;-80
2021/12/18 10:19:35;;;;;;;4.10;2.90;;;10.50;99.90;;;;;;5051778;28;20258;-79
2021/12/18 10:22:04;;;;;;;5.43;3.20;;;10.50;99.90;;;;;;5052745;28;20304;-79
2021/12/18 10:24:32;;;;;;;8.63;4.33;;;10.50;99.90;;;;;;5052371;28;20253;-79
2021/12/18 10:26:59;;;;;;;5.93;3.30;;;10.60;99.90;;;;;;5051520;28;20227;-80
2021/12/18 10:29:30;;;;;;;5.40;4.30;;;10.60;99.90;;;;;;5051279;28;20226;-80
2021/12/18 10:32:03;;;;;;;6.43;4.80;;;10.60;99.90;;;;;;5051434;28;20234;-79
2021/12/18 10:34:31;;;;;;;6.40;4.40;;;10.60;99.90;;;;;;5053308;28;20578;-80
2021/12/18 10:37:14;;;;;;;8.60;4.67;;;10.60;99.90;;;;;;5053000;28;20249;-80
2021/12/18 10:39:44;;;;;;;9.20;5.20;;;10.60;99.90;;;;;;5052072;28;20253;-80
2021/12/18 10:42:22;;;;;;;8.37;5.40;;;10.70;99.90;;;;;;5053048;28;20222;-79
2021/12/18 10:45:00;;;;;;;11.43;5.43;;;10.70;99.90;;;;;;5051348;28;20218;-79
2021/12/18 10:47:41;;;;;;;7.07;5.03;;;10.70;99.90;;;;;;5050224;28;20237;-79
2021/12/18 10:50:16;;;;;;;8.60;4.80;;;10.70;99.90;;;;;;5051682;28;20231;-80
2021/12/18 10:52:43;;;;;;;9.67;4.70;;;10.80;99.90;;;;;;5051910;28;20222;-80
2021/12/18 10:55:10;;;;;;;7.57;4.53;;;10.80;99.90;;;;;;5052762;28;20238;-79
2021/12/18 10:57:37;;;;;;;10.67;4.63;;;10.90;99.90;;;;;;5052426;28;20202;-80
2021/12/18 11:00:05;;;;;;;6.80;4.43;;;10.90;99.90;;;;;;5051605;28;20267;-80
2021/12/18 11:02:41;;;;;;;8.00;4.23;;;10.90;99.90;;;;;;5050722;28;20339;-79
2021/12/18 11:05:17;;;;;;;12.30;5.23;;;11.00;99.90;;;;;;5052082;28;20226;-79
2021/12/18 11:07:48;;;;;;;8.30;4.47;;;11.00;99.90;;;;;;5050755;28;20236;-79
2021/12/18 11:10:39;;;;;;;8.83;4.13;;;11.00;99.90;;;;;;5048164;28;20227;-79
2021/12/18 11:15:51;;;;;;;12.00;4.53;;;11.10;99.90;;;;;;5035433;28;20215;-80
2021/12/18 11:18:19;;;;;;;11.70;4.40;;;11.20;99.90;;;;;;5034283;28;20219;-79
2021/12/18 11:20:50;;;;;;;8.67;4.10;;;11.20;99.90;;;;;;5052923;28;20222;-79
2021/12/18 11:23:21;;;;;;;10.13;4.63;;;11.20;99.90;;;;;;5050812;28;20319;-79
2021/12/18 11:25:52;;;;;;;7.07;4.03;;;11.20;99.90;;;;;;5034030;28;20235;-80
2021/12/18 11:28:19;;;;;;;14.10;4.50;;;11.30;99.90;;;;;;5052610;28;20708;-80
2021/12/18 11:30:49;;;;;;;11.30;4.57;;;11.30;99.90;;;;;;5033691;28;20232;-80
2021/12/18 11:33:16;;;;;;;12.80;4.27;;;11.40;99.90;;;;;;5034194;28;20638;-79
2021/12/18 11:35:44;;;;;;;12.37;4.30;;;11.40;99.90;;;;;;5051401;28;20219;-80
2021/12/18 11:38:15;;;;;;;14.97;4.63;;;11.40;99.90;;;;;;5051916;28;20315;-79
2021/12/18 11:40:43;;;;;;;12.63;5.10;;;11.50;99.90;;;;;;5034087;28;20229;-79
2021/12/18 11:43:30;;;;;;;14.60;5.70;;;11.50;99.90;;;;;;5049582;28;20239;-80
2021/12/18 11:45:57;;;;;;;13.50;5.33;;;11.50;99.90;;;;;;5033369;28;20223;-80
2021/12/18 11:48:24;;;;;;;12.30;5.93;;;11.50;99.90;;;;;;5032905;28;20231;-80
2021/12/18 11:50:51;;;;;;;15.90;5.70;;;11.60;99.90;;;;;;5033973;28;20230;-80
2021/12/18 11:53:21;;;;;;;14.53;5.50;;;11.60;99.90;;;;;;5034902;28;20237;-79
2021/12/18 11:56:00;;;;;;;13.97;5.93;;;11.60;99.90;;;;;;5065813;28;20242;-80
2021/12/18 11:58:28;;;;;;;8.00;4.87;;;11.60;99.90;;;;;;5049833;28;20219;-80
2021/12/18 12:00:59;;;;;;;15.20;6.30;;;11.70;99.90;;;;;;5048177;28;20234;-80
2021/12/18 12:03:29;;;;;;;12.83;5.23;;;11.70;99.90;;;;;;5033276;28;20256;-79
2021/12/18 12:05:58;;;;;;;12.23;5.23;;;11.70;99.90;;;;;;5032521;28;20689;-79
2021/12/18 12:08:34;;;;;;;8.73;4.53;;;11.70;99.90;;;;;;5032249;28;20230;-79
2021/12/18 12:11:26;;;;;;;12.23;4.77;;;11.70;99.90;;;;;;5048856;28;20305;-80
2021/12/18 12:14:11;;;;;;;12.43;4.80;;;11.80;99.90;;;;;;5034870;28;20230;-79
2021/12/18 12:17:04;;;;;;;10.27;4.57;;;11.80;99.90;;;;;;5031349;28;20225;-80
2021/12/18 12:19:53;;;;;;;11.77;4.30;;;11.80;99.90;;;;;;5031327;28;20240;-80
2021/12/18 12:22:48;;;;;;;18.97;6.80;;;11.90;99.90;;;;;;5032142;28;20305;-80
2021/12/18 12:25:19;;;;;;;11.37;4.90;;;11.90;99.90;;;;;;5050800;28;20238;-80
2021/12/18 12:27:48;;;;;;;10.00;5.43;;;11.90;99.90;;;;;;5070207;28;20235;-79
2021/12/18 12:30:28;;;;;;;22.10;9.57;;;11.90;99.90;;;;;;5051995;28;20310;-81
2021/12/18 12:32:57;;;;;;;16.20;5.50;;;11.90;99.90;;;;;;5052504;28;20573;-80
2021/12/18 12:35:24;;;;;;;14.23;4.67;;;11.90;99.90;;;;;;5072249;28;20692;-80
2021/12/18 12:37:51;;;;;;;12.57;3.90;;;12.00;99.90;;;;;;5033232;28;20251;-80
2021/12/18 12:40:31;;;;;;;10.57;4.10;;;12.00;99.90;;;;;;5051024;28;20702;-80
2021/12/18 12:43:14;;;;;;;13.33;4.60;;;12.00;99.90;;;;;;5031911;28;20261;-80
2021/12/18 12:45:43;;;;;;;19.40;7.00;;;12.00;99.90;;;;;;5035032;28;20238;-80
2021/12/18 12:48:10;;;;;;;13.57;5.40;;;12.10;99.90;;;;;;5056691;28;20318;-80
2021/12/18 12:50:37;;;;;;;25.73;12.50;;;12.10;99.90;;;;;;5048916;28;20251;-81
2021/12/18 12:53:06;;;;;;;25.50;10.93;;;12.10;99.90;;;;;;5050931;28;20724;-80
2021/12/18 12:55:40;;;;;;;21.40;10.47;;;12.10;99.90;;;;;;5056640;28;20264;-80
2021/12/18 12:58:17;;;;;;;12.57;4.50;;;12.20;99.90;;;;;;5049992;28;20222;-80
2021/12/18 13:00:48;;;;;;;13.23;3.87;;;12.20;99.90;;;;;;5049796;28;20509;-80
2021/12/18 13:03:30;;;;;;;13.63;3.97;;;12.20;99.90;;;;;;5032050;28;20252;-80
2021/12/18 13:06:01;;;;;;;13.23;3.83;;;12.20;99.90;;;;;;5050245;28;20349;-80
2021/12/18 13:08:29;;;;;;;11.03;3.87;;;12.30;99.90;;;;;;5044757;28;20709;-83
2021/12/18 13:10:59;;;;;;;9.13;3.47;;;12.30;99.90;;;;;;5051931;28;20255;-82
2021/12/18 13:13:28;;;;;;;17.27;3.77;;;12.30;99.90;;;;;;5050232;28;20231;-82
2021/12/18 13:15:59;;;;;;;12.20;3.87;;;12.30;99.90;;;;;;5031904;28;20303;-82
2021/12/18 13:18:29;;;;;;;11.53;3.60;;;12.30;99.90;;;;;;5060351;28;20304;-83
2021/12/18 13:20:57;;;;;;;13.40;4.27;;;12.40;99.90;;;;;;5034459;28;20224;-82
2021/12/18 13:23:40;;;;;;;14.57;3.73;;;12.40;99.90;;;;;;5052323;28;20227;-82